Cuzco, Indiana
Current Conditions -  °F | °C
As of 12:35 AM on Monday 22 Dec 2014 (Local Time) from KHNB Reporting Station
Clear Clear  
Wind Chill: 27°   Ceiling: Unl
Heat Index: 34°   Visibility: 10mi
Dew Point: 27°   Wind: 8mph
Humidity: 75%   Direction: 100°E
Pressure: 30.02"   Gusts: NA
Location:  38.4941°N, 86.6155°W
Report Text: KHNB 220535Z AUTO 10007KT 10SM CLR 01/M03 A3002 RMK AO1
Loading
Personal Weather Stations






























Interactive Weather Map New forecast layout! Learn more

10-Day Weather Forecast

Advertisements
Track Severe Weather on mobile